Time;durP1;ratioP1;P1;durP2;ratioP2;P2;SDS_P1;SDS_P2;PMS_P1;PMS_P2;Temp;Humidity;BMP_temperature;BMP_pressure;BME280_temperature;BME280_humidity;BME280_pressure;Samples;Min_cycle;Max_cycle;Signal;HPM_P1;HPM_P2
2021/09/09 00:00:19;;;;;;;10.63;9.63;;;;;;;22.44;55.36;101184.75;4918972;29;20028;-79
2021/09/09 00:02:44;;;;;;;10.02;8.98;;;;;;;22.40;55.38;101175.13;4903364;29;20024;-78
2021/09/09 00:05:10;;;;;;;11.02;9.90;;;;;;;22.44;55.50;101179.47;4906055;29;20063;-80
2021/09/09 00:07:36;;;;;;;9.90;8.93;;;;;;;22.36;55.23;101167.28;4937828;29;20537;-78
2021/09/09 00:10:04;;;;;;;9.68;8.68;;;;;;;22.44;55.30;101176.84;4937967;29;20359;-78
2021/09/09 00:12:29;;;;;;;10.45;9.35;;;;;;;22.42;55.32;101172.47;4921669;29;20119;-81
2021/09/09 00:14:56;;;;;;;10.32;9.32;;;;;;;22.43;55.42;101167.19;4922004;29;20044;-78
2021/09/09 00:17:21;;;;;;;9.73;8.55;;;;;;;22.40;55.16;101156.69;4937038;29;20023;-79
2021/09/09 00:19:47;;;;;;;10.25;9.15;;;;;;;22.39;55.27;101148.81;4906228;29;20039;-79
2021/09/09 00:22:12;;;;;;;10.35;9.27;;;;;;;22.42;55.47;101154.03;4921704;29;20059;-78
2021/09/09 00:24:38;;;;;;;10.73;9.63;;;;;;;22.53;55.64;101167.03;4911861;29;20024;-79
2021/09/09 00:27:03;;;;;;;9.98;8.98;;;;;;;22.51;55.59;101169.69;4921676;29;20078;-79
2021/09/09 00:29:29;;;;;;;11.18;9.70;;;;;;;22.45;55.83;101154.84;4936928;29;20042;-79
2021/09/09 00:31:54;;;;;;;10.65;9.65;;;;;;;22.44;55.29;101157.50;4921550;29;20039;-83
2021/09/09 00:34:20;;;;;;;10.20;9.20;;;;;;;22.35;55.31;101137.44;4921132;29;20122;-80
2021/09/09 00:36:45;;;;;;;9.68;8.68;;;;;;;22.43;55.38;101145.22;4922265;29;20028;-86
2021/09/09 00:39:11;;;;;;;11.15;9.98;;;;;;;22.39;55.50;101143.53;4941091;29;20429;-81
2021/09/09 00:41:37;;;;;;;10.40;8.82;;;;;;;22.47;55.54;101149.53;4921825;29;20019;-79
2021/09/09 00:44:02;;;;;;;10.98;9.88;;;;;;;22.35;55.23;101132.16;4919308;29;20394;-79
2021/09/09 00:46:31;;;;;;;12.23;10.02;;;;;;;22.37;55.54;101134.78;4936636;29;20042;-78
2021/09/09 00:48:56;;;;;;;10.68;9.40;;;;;;;22.41;55.32;101147.00;4903954;29;20367;-78
2021/09/09 00:51:22;;;;;;;10.27;9.27;;;;;;;22.44;55.54;101147.84;4935038;29;20039;-79
2021/09/09 00:53:47;;;;;;;10.05;9.00;;;;;;;22.41;55.37;101145.25;4903703;29;20083;-80
2021/09/09 00:56:13;;;;;;;10.68;9.57;;;;;;;22.35;55.60;101131.28;4906503;29;20122;-79
2021/09/09 00:58:42;;;;;;;11.32;9.88;;;;;;;22.38;55.34;101132.13;4923072;29;20027;-80
2021/09/09 01:01:08;;;;;;;12.18;9.80;;;;;;;22.32;55.39;101116.44;4904094;29;20376;-79
2021/09/09 01:03:34;;;;;;;11.98;9.35;;;;;;;22.44;55.24;101137.31;4910295;29;20476;-79
2021/09/09 01:05:59;;;;;;;10.77;9.65;;;;;;;22.34;55.29;101119.00;4926949;29;20088;-82
2021/09/09 01:08:25;;;;;;;10.55;9.45;;;;;;;22.43;55.39;101129.41;4927648;29;20054;-79
2021/09/09 01:10:50;;;;;;;13.45;9.68;;;;;;;22.33;55.31;101112.03;4916325;29;20031;-78
2021/09/09 01:13:16;;;;;;;10.05;9.00;;;;;;;22.46;55.31;101135.47;4937360;29;20118;-79
2021/09/09 01:15:43;;;;;;;11.68;9.77;;;;;;;22.37;55.28;101109.28;4944788;29;20359;-79
2021/09/09 01:18:10;;;;;;;10.23;8.77;;;;;;;22.47;55.32;101133.72;4936564;29;20110;-78
2021/09/09 01:20:35;;;;;;;9.93;8.80;;;;;;;22.35;55.28;101118.13;4916491;29;20118;-77
2021/09/09 01:23:01;;;;;;;12.07;10.52;;;;;;;22.48;55.27;101127.56;4939173;29;20461;-79
2021/09/09 01:25:26;;;;;;;11.55;10.05;;;;;;;22.47;55.48;101125.81;4960585;29;20073;-79
2021/09/09 01:27:52;;;;;;;10.90;9.15;;;;;;;22.43;55.20;101125.03;4942177;29;20027;-79
2021/09/09 01:30:17;;;;;;;10.68;9.38;;;;;;;22.34;55.23;101105.84;4923353;29;20032;-80
2021/09/09 01:32:43;;;;;;;11.57;10.15;;;;;;;22.31;55.34;101093.59;4922542;29;20031;-79
2021/09/09 01:35:09;;;;;;;11.00;8.88;;;;;;;22.45;55.26;101106.56;4903436;29;20028;-80
2021/09/09 01:37:34;;;;;;;11.82;10.38;;;;;;;22.36;55.61;101091.75;4903369;29;20032;-80
2021/09/09 01:40:00;;;;;;;11.95;10.75;;;;;;;22.35;55.35;101092.63;4919696;29;20395;-79
2021/09/09 01:42:25;;;;;;;10.90;9.73;;;;;;;22.44;55.20;101104.81;4922416;29;20038;-78
2021/09/09 01:44:51;;;;;;;11.65;10.45;;;;;;;22.47;55.34;101115.28;4935128;29;20386;-79
2021/09/09 01:47:16;;;;;;;10.38;9.27;;;;;;;22.42;55.40;101101.31;4906475;29;20035;-81
2021/09/09 01:49:41;;;;;;;10.75;9.75;;;;;;;22.43;55.30;101096.03;4922470;29;20027;-80
2021/09/09 01:52:07;;;;;;;11.15;9.10;;;;;;;22.46;55.34;101108.25;4922678;29;20042;-78
2021/09/09 01:54:33;;;;;;;11.93;10.68;;;;;;;22.44;55.19;101105.69;4924788;29;20118;-79
2021/09/09 01:56:58;;;;;;;9.93;8.93;;;;;;;22.32;55.38;101078.66;4928352;29;20059;-80
2021/09/09 01:59:23;;;;;;;12.07;10.75;;;;;;;22.35;55.29;101087.38;4932011;29;20508;-80
2021/09/09 02:01:49;;;;;;;10.70;9.70;;;;;;;22.34;55.26;101085.63;4926552;29;20027;-78
2021/09/09 02:04:14;;;;;;;10.95;9.50;;;;;;;22.46;55.09;101095.94;4922140;29;20075;-80
2021/09/09 02:06:39;;;;;;;11.30;10.10;;;;;;;22.27;55.20;101073.47;4905064;29;20390;-79
2021/09/09 02:09:05;;;;;;;11.00;9.88;;;;;;;22.43;55.23;101101.31;4921821;29;20031;-79
2021/09/09 02:11:31;;;;;;;10.65;9.55;;;;;;;22.33;55.08;101088.31;4905994;29;20386;-79
2021/09/09 02:13:56;;;;;;;11.38;10.10;;;;;;;22.33;55.24;101090.94;4953144;29;20126;-79
2021/09/09 02:16:21;;;;;;;10.15;9.13;;;;;;;22.43;55.12;101106.56;4922140;29;20036;-80
2021/09/09 02:18:47;;;;;;;11.25;10.05;;;;;;;22.43;55.23;101106.56;4921848;29;20036;-79
2021/09/09 02:21:13;;;;;;;11.95;10.68;;;;;;;22.43;55.20;101101.31;4905654;29;20032;-79
2021/09/09 02:23:38;;;;;;;11.40;9.93;;;;;;;22.39;55.22;101107.50;4921404;29;20078;-79
2021/09/09 02:26:04;;;;;;;12.95;10.70;;;;;;;22.44;55.10;101110.94;4921525;29;20099;-79
2021/09/09 02:28:31;;;;;;;10.90;9.80;;;;;;;22.31;55.01;101095.38;4937678;29;20102;-79
2021/09/09 02:30:56;;;;;;;11.77;10.60;;;;;;;22.41;54.99;101103.09;4926357;29;20028;-79
2021/09/09 02:33:25;;;;;;;12.40;10.38;;;;;;;22.43;55.51;101111.84;4905582;29;20378;-80
2021/09/09 02:35:50;;;;;;;9.90;8.90;;;;;;;22.41;55.24;101111.00;4921196;29;20042;-79
2021/09/09 02:38:16;;;;;;;11.10;10.00;;;;;;;22.37;55.02;101106.66;4936886;29;20028;-79
2021/09/09 02:40:41;;;;;;;12.50;10.82;;;;;;;22.32;55.14;101095.34;4921018;29;20078;-80
2021/09/09 02:43:07;;;;;;;12.88;10.75;;;;;;;22.43;55.18;101109.22;4936947;29;20027;-79
2021/09/09 02:45:33;;;;;;;10.32;9.02;;;;;;;22.40;55.19;101103.97;4937429;29;20478;-79
2021/09/09 02:47:59;;;;;;;11.07;9.68;;;;;;;22.31;55.17;101090.09;4921286;29;20066;-81
2021/09/09 02:50:25;;;;;;;11.25;10.07;;;;;;;22.35;55.15;101090.00;4936707;29;20093;-79
2021/09/09 02:52:50;;;;;;;11.27;9.90;;;;;;;22.41;54.96;101100.47;4921327;29;20434;-79
2021/09/09 02:55:15;;;;;;;9.55;8.65;;;;;;;22.29;55.16;101074.31;4920625;29;20031;-79
2021/09/09 02:57:41;;;;;;;10.98;9.88;;;;;;;22.32;54.93;101073.41;4905286;29;20042;-79
2021/09/09 03:00:07;;;;;;;11.15;10.02;;;;;;;22.29;54.91;101071.69;4936783;29;20028;-79
2021/09/09 03:02:33;;;;;;;10.75;9.65;;;;;;;22.39;54.95;101085.56;4920888;29;20035;-78
2021/09/09 03:04:58;;;;;;;12.07;10.20;;;;;;;22.40;55.27;101085.53;4920689;29;20380;-79
2021/09/09 03:07:24;;;;;;;10.50;9.43;;;;;;;22.30;54.84;101056.75;4920891;29;20035;-80
2021/09/09 03:09:50;;;;;;;11.23;10.05;;;;;;;22.25;54.98;101046.28;4929139;29;20047;-79
2021/09/09 03:12:16;;;;;;;11.35;10.20;;;;;;;22.26;55.05;101045.38;4936527;29;20433;-79
2021/09/09 03:14:41;;;;;;;12.30;10.40;;;;;;;22.35;54.97;101061.03;4936390;29;20382;-78
2021/09/09 03:17:06;;;;;;;11.57;10.43;;;;;;;22.40;55.02;101067.09;4952054;29;20024;-80
2021/09/09 03:19:32;;;;;;;11.25;10.13;;;;;;;22.32;54.72;101047.94;4936857;29;20028;-81
2021/09/09 03:21:58;;;;;;;11.25;10.10;;;;;;;22.39;55.07;101069.75;4936430;29;20028;-77
2021/09/09 03:24:23;;;;;;;10.48;9.23;;;;;;;22.37;55.04;101053.97;4936353;29;20024;-81
2021/09/09 03:26:50;;;;;;;11.85;10.63;;;;;;;22.40;54.84;101061.81;4952178;28;20037;-81
2021/09/09 03:29:16;;;;;;;11.40;10.25;;;;;;;22.38;54.83;101053.06;4952248;28;20032;-79
2021/09/09 03:31:41;;;;;;;10.57;9.48;;;;;;;22.38;55.00;101057.47;4904756;29;20035;-80
2021/09/09 03:34:06;;;;;;;11.07;9.85;;;;;;;22.32;54.74;101041.78;4904313;29;20035;-81
2021/09/09 03:36:32;;;;;;;12.43;10.23;;;;;;;22.32;54.70;101044.41;4920424;29;20043;-81
2021/09/09 03:38:57;;;;;;;14.48;11.23;;;;;;;22.36;54.88;101052.22;4931294;29;20486;-78
2021/09/09 03:41:22;;;;;;;11.73;10.52;;;;;;;22.39;54.82;101053.94;4904438;29;20028;-80
2021/09/09 03:43:48;;;;;;;11.48;10.38;;;;;;;22.38;54.83;101054.84;4920660;29;20024;-78
2021/09/09 03:46:13;;;;;;;12.55;10.88;;;;;;;22.39;54.78;101053.94;4920099;29;20027;-80
2021/09/09 03:48:39;;;;;;;12.15;10.90;;;;;;;22.36;54.77;101049.59;4920085;29;20175;-78
2021/09/09 03:51:04;;;;;;;11.27;10.27;;;;;;;22.28;55.01;101033.06;4924864;29;20470;-81
2021/09/09 03:53:29;;;;;;;11.52;10.40;;;;;;;22.39;54.58;101053.94;4935883;29;20114;-82
2021/09/09 03:55:55;;;;;;;11.30;10.20;;;;;;;22.28;54.72;101034.81;4920056;29;20031;-83
2021/09/09 03:58:20;;;;;;;12.48;11.18;;;;;;;22.38;54.65;101052.19;4935880;29;20091;-78
2021/09/09 04:00:46;;;;;;;13.43;11.15;;;;;;;22.32;54.57;101041.78;4920025;29;20031;-81
2021/09/09 04:03:11;;;;;;;12.95;10.65;;;;;;;22.35;54.73;101042.56;4920090;29;20390;-80
2021/09/09 04:05:36;;;;;;;12.27;10.98;;;;;;;22.36;54.67;101054.84;4913969;29;20459;-79
2021/09/09 04:08:02;;;;;;;11.45;10.13;;;;;;;22.25;54.72;101034.88;4917289;29;20060;-79
2021/09/09 04:10:28;;;;;;;11.82;10.60;;;;;;;22.26;54.66;101037.47;4916240;29;20062;-80
2021/09/09 04:12:53;;;;;;;13.70;10.88;;;;;;;22.32;54.69;101037.38;4911336;29;20024;-79
2021/09/09 04:15:18;;;;;;;11.30;10.20;;;;;;;22.27;54.16;101025.19;4901386;29;20052;-82
2021/09/09 04:17:44;;;;;;;11.15;10.05;;;;;;;22.33;54.55;101040.91;4916941;29;20028;-80
2021/09/09 04:20:10;;;;;;;11.90;10.13;;;;;;;22.36;54.58;101043.44;4916944;29;20032;-78
2021/09/09 04:22:36;;;;;;;12.35;11.15;;;;;;;22.37;54.65;101039.91;4897680;29;20032;-80
2021/09/09 04:25:02;;;;;;;12.20;10.85;;;;;;;22.24;54.61;101015.56;4882608;29;20040;-81
2021/09/09 04:27:30;;;;;;;12.38;11.18;;;;;;;22.35;54.65;101032.03;4897709;29;20059;-81
2021/09/09 04:29:56;;;;;;;11.10;10.00;;;;;;;22.23;54.61;100999.78;4887742;29;20028;-81
2021/09/09 04:32:21;;;;;;;12.07;10.68;;;;;;;22.30;54.65;101012.81;4889131;29;20083;-81
2021/09/09 04:34:47;;;;;;;11.50;10.32;;;;;;;22.26;55.24;101003.22;4890279;29;20052;-82
2021/09/09 04:37:12;;;;;;;12.40;9.57;;;;;;;22.27;55.29;101001.47;4905932;29;20020;-82
2021/09/09 04:39:38;;;;;;;10.75;9.68;;;;;;;22.29;55.32;101002.31;4888832;29;20107;-82
2021/09/09 04:42:04;;;;;;;12.23;10.30;;;;;;;22.36;55.22;101017.97;4889849;29;20130;-80
2021/09/09 04:44:29;;;;;;;12.27;10.98;;;;;;;22.32;55.31;101011.03;4888748;29;20035;-81
2021/09/09 04:46:54;;;;;;;13.43;10.98;;;;;;;22.29;55.38;100989.13;4888719;29;20055;-83
2021/09/09 04:49:20;;;;;;;11.38;10.10;;;;;;;22.31;55.52;101000.53;4904137;29;20440;-82
2021/09/09 04:51:45;;;;;;;11.35;10.02;;;;;;;22.31;55.76;101004.03;4888606;29;20056;-83
2021/09/09 04:54:10;;;;;;;10.30;9.30;;;;;;;22.35;55.52;101005.69;4919779;29;20039;-81
2021/09/09 04:56:36;;;;;;;10.93;9.82;;;;;;;22.32;55.58;100999.63;4904032;29;20064;-81
2021/09/09 04:59:02;;;;;;;11.20;10.05;;;;;;;22.45;55.39;101011.69;4904134;29;20079;-81
2021/09/09 05:01:28;;;;;;;11.18;9.38;;;;;;;22.37;55.56;101008.31;4889311;29;20032;-77
2021/09/09 05:03:53;;;;;;;11.10;9.98;;;;;;;22.30;55.41;100991.75;4925748;29;20051;-80
2021/09/09 05:06:19;;;;;;;9.68;8.68;;;;;;;22.44;55.45;101010.81;4924683;29;20043;-82
2021/09/09 05:08:44;;;;;;;14.32;10.55;;;;;;;22.44;55.31;101009.94;4938733;29;20123;-81
2021/09/09 05:11:11;;;;;;;10.77;9.52;;;;;;;22.31;55.11;100995.25;4927184;29;20599;-82
2021/09/09 05:13:40;;;;;;;13.65;11.63;;;;;;;22.30;54.91;100990.88;4922897;29;20035;-81
2021/09/09 05:16:05;;;;;;;15.32;10.40;;;;;;;22.26;55.11;100990.06;4923247;29;20038;-81
2021/09/09 05:18:31;;;;;;;11.48;10.27;;;;;;;22.30;55.22;100994.38;4922684;29;20035;-80
2021/09/09 05:20:57;;;;;;;16.70;14.88;;;;;;;21.96;54.02;101004.59;4940637;29;20474;-79
2021/09/09 05:23:22;;;;;;;18.52;16.60;;;;;;;21.50;54.19;101004.47;4922865;29;20466;-80
2021/09/09 05:25:47;;;;;;;18.75;16.85;;;;;;;21.20;54.63;101003.13;4938391;29;20036;-72
2021/09/09 05:28:13;;;;;;;24.75;17.77;;;;;;;20.89;55.69;101007.91;4907604;29;20548;-80
2021/09/09 05:30:38;;;;;;;20.23;16.92;;;;;;;20.85;55.32;100986.91;4908079;29;20034;-78
2021/09/09 05:33:04;;;;;;;21.48;18.80;;;;;;;20.77;55.36;100978.28;4928073;29;20032;-81
2021/09/09 05:35:29;;;;;;;19.08;17.08;;;;;;;20.86;55.10;100983.41;4909705;29;20027;-80
2021/09/09 05:37:55;;;;;;;24.15;17.77;;;;;;;20.75;55.35;100987.91;4939074;29;20375;-78
2021/09/09 05:40:20;;;;;;;22.17;19.80;;;;;;;20.84;55.50;101011.47;4938805;29;20027;-78
2021/09/09 05:42:45;;;;;;;24.83;19.38;;;;;;;20.58;56.20;100993.38;4938941;29;20087;-81
2021/09/09 05:45:11;;;;;;;19.55;17.10;;;;;;;20.39;56.54;100973.41;4923538;29;20457;-80
2021/09/09 05:47:36;;;;;;;23.42;19.67;;;;;;;20.56;56.17;100993.38;4939277;29;20031;-79
2021/09/09 05:50:03;;;;;;;21.88;17.63;;;;;;;20.46;56.31;100973.34;4907693;29;20431;-81
2021/09/09 05:52:31;;;;;;;22.45;19.60;;;;;;;20.55;56.59;100991.63;4938624;29;20028;-79
2021/09/09 05:54:57;;;;;;;21.65;18.95;;;;;;;20.56;56.26;100987.25;4923075;29;20031;-81
2021/09/09 05:57:23;;;;;;;22.83;17.45;;;;;;;20.53;56.28;100997.78;4938506;29;20087;-81
2021/09/09 05:59:51;;;;;;;19.63;15.80;;;;;;;20.64;55.97;100967.03;4938667;29;20047;-80
2021/09/09 06:02:18;;;;;;;18.95;15.65;;;;;;;21.15;54.94;100983.03;4937631;29;20122;-79
2021/09/09 06:04:45;;;;;;;16.73;14.98;;;;;;;21.31;54.59;100969.66;4921224;29;20063;-79
2021/09/09 06:07:11;;;;;;;16.02;14.27;;;;;;;21.40;54.67;100955.50;4922668;29;20142;-82
2021/09/09 06:09:38;;;;;;;15.65;14.02;;;;;;;21.60;54.27;100974.47;4922672;29;20118;-81
2021/09/09 06:12:05;;;;;;;19.27;15.10;;;;;;;21.65;54.97;100969.16;4922581;29;20024;-80
2021/09/09 06:14:31;;;;;;;15.27;13.70;;;;;;;21.66;54.34;100963.88;4922541;29;20497;-81
2021/09/09 06:16:58;;;;;;;18.60;14.13;;;;;;;21.71;54.35;100967.28;4939021;29;20031;-78
2021/09/09 06:19:24;;;;;;;15.77;13.77;;;;;;;21.84;54.40;100978.47;4922272;29;20131;-79
2021/09/09 06:21:50;;;;;;;14.40;12.73;;;;;;;21.97;54.28;100980.00;4923323;29;20554;-79
2021/09/09 06:24:16;;;;;;;14.23;12.75;;;;;;;22.24;54.02;100986.56;4937884;29;20106;-79
2021/09/09 06:26:41;;;;;;;16.85;13.90;;;;;;;22.04;54.10;100989.59;4937804;29;20051;-79
2021/09/09 06:29:06;;;;;;;13.43;11.38;;;;;;;21.92;54.41;100968.69;4906752;29;20087;-80
2021/09/09 06:31:32;;;;;;;14.80;11.90;;;;;;;21.83;54.56;100949.53;4939051;29;20042;-83
2021/09/09 06:33:58;;;;;;;14.93;13.32;;;;;;;21.89;54.49;100957.34;4925041;29;20043;-82
2021/09/09 06:36:23;;;;;;;19.70;13.27;;;;;;;22.13;54.56;100993.81;4922536;29;20044;-80
2021/09/09 06:38:59;;;;;;;14.00;12.57;;;;;;;22.04;54.61;100972.91;4906824;29;20035;-81
2021/09/09 06:41:25;;;;;;;16.50;11.60;;;;;;;22.04;54.95;100971.16;4938676;29;20035;-80
2021/09/09 06:43:50;;;;;;;13.02;11.73;;;;;;;21.94;54.34;100943.19;4921720;29;20035;-80
2021/09/09 06:46:15;;;;;;;13.52;12.18;;;;;;;22.13;54.21;100963.97;4921347;29;20031;-79
2021/09/09 06:48:41;;;;;;;12.85;11.48;;;;;;;22.00;54.89;100942.25;4921332;29;20390;-79
2021/09/09 06:51:06;;;;;;;12.43;11.13;;;;;;;22.21;54.37;100968.19;4937852;29;20119;-80
2021/09/09 06:53:32;;;;;;;13.38;11.98;;;;;;;22.26;54.54;100974.25;4924047;29;20035;-82
2021/09/09 06:55:57;;;;;;;14.98;12.10;;;;;;;22.21;54.61;100965.56;4941303;29;20028;-83
2021/09/09 06:58:23;;;;;;;14.45;12.23;;;;;;;22.30;54.57;100975.94;4939047;29;20036;-82
2021/09/09 07:00:50;;;;;;;13.40;11.93;;;;;;;22.27;54.60;100954.03;4910374;29;20031;-83
2021/09/09 07:03:15;;;;;;;14.43;11.90;;;;;;;22.26;54.70;100958.44;4926342;29;20046;-83
2021/09/09 07:05:44;;;;;;;15.80;11.07;;;;;;;22.14;54.21;100934.09;4928059;29;20502;-86
2021/09/09 07:08:10;;;;;;;15.98;12.38;;;;;;;22.35;54.21;100958.25;4930135;29;20058;-82
2021/09/09 07:10:35;;;;;;;13.38;11.85;;;;;;;22.28;53.99;100948.75;4910288;29;20416;-84
2021/09/09 07:13:00;;;;;;;15.88;10.82;;;;;;;22.15;54.33;100928.81;4894575;29;20526;-89
2021/09/09 07:15:26;;;;;;;13.57;12.18;;;;;;;22.18;54.39;100927.88;4909637;29;20530;-84
2021/09/09 07:17:51;;;;;;;13.25;11.32;;;;;;;22.34;54.27;100953.88;4876814;29;20024;-81
2021/09/09 07:20:17;;;;;;;12.43;11.13;;;;;;;22.21;54.25;100941.84;4902559;29;20145;-81
2021/09/09 07:22:42;;;;;;;17.58;11.05;;;;;;;22.24;54.15;100944.44;4886532;29;20035;-82
2021/09/09 07:25:09;;;;;;;14.40;11.52;;;;;;;22.22;54.22;100943.59;4902103;29;20083;-81
2021/09/09 07:27:35;;;;;;;14.82;11.05;;;;;;;22.41;54.75;100981.00;4902353;29;20024;-85
2021/09/09 07:30:04;;;;;;;17.27;12.65;;;;;;;22.37;54.13;100974.91;4888151;29;20047;-83
2021/09/09 07:32:30;;;;;;;13.20;11.70;;;;;;;22.42;54.42;100982.75;4887827;29;20024;-82
2021/09/09 07:34:55;;;;;;;13.73;12.40;;;;;;;22.31;54.34;100971.53;4886210;29;20107;-81
2021/09/09 07:37:21;;;;;;;14.20;12.70;;;;;;;22.37;53.89;100997.75;4885713;29;20123;-81
2021/09/09 07:39:46;;;;;;;13.63;11.65;;;;;;;22.38;54.20;101026.72;4886223;29;20479;-81
2021/09/09 07:42:12;;;;;;;12.35;10.43;;;;;;;22.38;54.30;101007.41;4886127;29;20486;-81
2021/09/09 07:44:37;;;;;;;10.98;9.80;;;;;;;22.46;54.01;100992.31;4886155;29;20059;-80
2021/09/09 07:47:02;;;;;;;16.08;12.25;;;;;;;22.43;53.90;100990.63;4870678;29;20490;-81
2021/09/09 07:49:28;;;;;;;12.90;10.88;;;;;;;22.41;53.87;100984.50;4889441;29;20554;-82
2021/09/09 07:51:54;;;;;;;12.00;10.70;;;;;;;22.51;53.78;100981.69;4907243;29;20024;-81
2021/09/09 07:54:20;;;;;;;13.05;11.65;;;;;;;22.42;53.71;100972.19;4905039;29;20408;-81
2021/09/09 07:56:48;;;;;;;13.80;11.93;;;;;;;22.42;53.76;100962.53;4889737;29;20032;-81
2021/09/09 07:59:14;;;;;;;11.38;10.27;;;;;;;22.63;53.76;101000.78;4905494;29;20020;-82
2021/09/09 08:01:39;;;;;;;12.88;11.50;;;;;;;22.58;53.58;100985.97;4889704;29;20032;-81
2021/09/09 08:04:04;;;;;;;10.80;9.65;;;;;;;22.49;53.59;100968.53;4909354;29;20051;-80
2021/09/09 08:06:30;;;;;;;15.65;10.60;;;;;;;22.56;53.69;100977.22;4910182;29;20040;-81
2021/09/09 08:08:55;;;;;;;13.10;10.50;;;;;;;22.56;53.70;100971.94;4925131;29;20038;-79
2021/09/09 08:11:20;;;;;;;11.05;9.85;;;;;;;22.65;53.50;100977.88;4909481;29;20553;-80
2021/09/09 08:13:46;;;;;;;13.40;11.85;;;;;;;22.64;53.57;100977.91;4925345;29;20032;-81
2021/09/09 08:16:11;;;;;;;10.88;9.82;;;;;;;22.62;53.64;100979.72;4910141;29;20379;-80
2021/09/09 08:18:36;;;;;;;10.48;9.45;;;;;;;22.66;53.60;100982.25;4925319;29;20031;-79
2021/09/09 08:21:02;;;;;;;11.52;10.43;;;;;;;22.71;53.70;100992.72;4909553;29;20069;-79
2021/09/09 08:23:27;;;;;;;13.40;11.50;;;;;;;22.62;53.57;100969.16;4925339;29;20119;-81
2021/09/09 08:25:53;;;;;;;12.00;10.80;;;;;;;22.67;53.46;100984.00;4926526;29;20390;-80
2021/09/09 08:28:19;;;;;;;13.65;10.70;;;;;;;22.75;53.32;101008.44;4910196;29;20386;-80
2021/09/09 08:30:45;;;;;;;12.55;10.63;;;;;;;22.71;53.17;101009.41;4910052;29;20082;-81
2021/09/09 08:33:12;;;;;;;11.25;10.15;;;;;;;22.72;53.17;101005.00;4926338;29;20031;-84
2021/09/09 08:35:40;;;;;;;13.05;11.13;;;;;;;22.74;53.39;101000.56;4912235;29;20059;-81
2021/09/09 08:38:06;;;;;;;11.93;10.63;;;;;;;22.76;53.36;101011.97;4925967;29;20024;-80
2021/09/09 08:40:32;;;;;;;11.65;10.43;;;;;;;22.63;53.25;100995.50;4926760;29;20402;-84
2021/09/09 08:42:57;;;;;;;10.90;9.80;;;;;;;22.63;53.19;100994.63;4910964;29;20024;-81
2021/09/09 08:45:23;;;;;;;10.50;9.48;;;;;;;22.74;53.28;101008.47;4910422;29;20513;-80
2021/09/09 08:47:50;;;;;;;12.05;10.55;;;;;;;22.79;53.24;101012.78;4910540;29;20038;-81
2021/09/09 08:50:16;;;;;;;10.80;9.70;;;;;;;22.71;53.28;100990.09;4924002;29;20501;-80
2021/09/09 08:52:42;;;;;;;12.50;10.40;;;;;;;22.72;53.29;100984.75;4924784;29;20479;-80
2021/09/09 08:55:08;;;;;;;12.45;11.02;;;;;;;22.82;53.35;101008.34;4908430;29;20127;-79
2021/09/09 08:57:33;;;;;;;10.35;9.27;;;;;;;22.81;53.19;101007.50;4924522;29;20359;-81
2021/09/09 08:59:59;;;;;;;11.55;10.35;;;;;;;22.82;53.14;101016.28;4941758;29;20079;-81
2021/09/09 09:02:25;;;;;;;10.82;9.52;;;;;;;22.73;53.22;101004.09;4926405;29;20035;-80
2021/09/09 09:05:10;;;;;;;12.35;10.60;;;;;;;22.71;53.20;101013.81;4909505;29;20070;-80
2021/09/09 09:07:35;;;;;;;12.57;9.85;;;;;;;22.84;53.50;101040.84;4925408;29;20058;-81
2021/09/09 09:10:08;;;;;;;11.18;9.98;;;;;;;22.58;53.29;100986.84;4925856;29;20028;-82
2021/09/09 09:12:38;;;;;;;10.95;9.85;;;;;;;22.58;53.40;100989.47;4928307;29;20028;-84
2021/09/09 09:15:13;;;;;;;16.10;11.52;;;;;;;22.82;53.30;101021.53;4946831;29;20040;-86
2021/09/09 09:18:04;;;;;;;11.07;9.90;;;;;;;22.84;53.25;101027.66;4929654;29;20032;-80
2021/09/09 09:20:48;;;;;;;10.27;9.27;;;;;;;22.57;53.35;100981.59;4928575;29;20035;-82
2021/09/09 09:23:17;;;;;;;10.68;9.57;;;;;;;22.60;53.42;100992.91;4927404;29;20020;-81
2021/09/09 09:25:59;;;;;;;12.02;10.60;;;;;;;22.79;53.40;101023.34;4928516;29;20024;-81
2021/09/09 09:28:45;;;;;;;11.32;10.20;;;;;;;22.55;53.65;100973.69;4926942;29;20489;-87
2021/09/09 09:31:17;;;;;;;11.30;10.10;;;;;;;22.85;53.72;101017.06;4929197;29;20039;-85
2021/09/09 09:33:46;;;;;;;11.75;10.07;;;;;;;22.72;53.63;100997.09;4929663;29;20031;-87
2021/09/09 09:36:24;;;;;;;11.20;9.55;;;;;;;22.70;53.62;100997.13;4928013;29;20042;-85
2021/09/09 09:38:53;;;;;;;11.07;9.80;;;;;;;22.69;53.50;101005.94;4929455;29;20104;-84
2021/09/09 09:41:21;;;;;;;10.63;9.48;;;;;;;22.55;53.65;100983.38;4944823;29;20038;-85
2021/09/09 09:44:08;;;;;;;11.38;10.18;;;;;;;22.60;53.65;100985.00;4929694;29;20051;-88
2021/09/09 09:46:41;;;;;;;10.63;9.60;;;;;;;22.86;53.63;101031.97;4928871;29;20062;-84
2021/09/09 09:49:23;;;;;;;11.43;10.20;;;;;;;22.57;53.76;100987.72;4928911;29;20027;-85
2021/09/09 09:51:50;;;;;;;10.80;9.50;;;;;;;22.85;53.59;101032.88;4928005;29;20031;-89
2021/09/09 09:54:18;;;;;;;11.07;9.88;;;;;;;22.82;53.58;101019.78;4928783;29;20466;-86
2021/09/09 09:56:46;;;;;;;13.77;12.07;;;;;;;22.73;53.71;101004.94;4928575;29;20126;-82
2021/09/09 09:59:12;;;;;;;10.80;9.80;;;;;;;22.70;53.81;101004.16;4927827;29;20027;-88
2021/09/09 10:01:37;;;;;;;9.50;8.60;;;;;;;22.79;53.75;101014.56;4928236;29;20116;-87
2021/09/09 10:04:06;;;;;;;10.52;9.52;;;;;;;22.83;53.72;101023.28;4928651;29;20070;-88
2021/09/09 10:06:33;;;;;;;10.68;9.52;;;;;;;22.61;53.70;100977.97;4928584;29;20058;-82
2021/09/09 10:08:59;;;;;;;10.57;9.52;;;;;;;22.70;53.59;100993.63;4928929;29;20027;-86
2021/09/09 10:11:25;;;;;;;12.02;10.93;;;;;;;22.75;53.65;101000.53;4898680;29;20039;-80
2021/09/09 10:13:51;;;;;;;10.55;9.48;;;;;;;22.85;53.80;101017.06;4913858;29;20035;-84
2021/09/09 10:16:21;;;;;;;10.90;9.80;;;;;;;22.69;53.94;100984.84;4912821;29;20028;-84
2021/09/09 10:18:46;;;;;;;10.48;9.48;;;;;;;22.86;53.77;101002.09;4929038;29;20027;-84
2021/09/09 10:21:12;;;;;;;11.20;9.95;;;;;;;22.69;53.68;100970.78;4912484;29;20066;-88
2021/09/09 10:23:37;;;;;;;10.80;9.80;;;;;;;22.70;53.69;100975.16;4929531;29;20032;-82
2021/09/09 10:26:06;;;;;;;10.35;9.30;;;;;;;22.62;53.95;100959.50;4912124;29;20024;-81
2021/09/09 10:28:39;;;;;;;12.18;10.70;;;;;;;22.86;53.76;100995.06;4926771;29;20023;-82
2021/09/09 10:31:06;;;;;;;;;;;;;;;22.87;53.79;100994.16;4930129;29;20138;-86
2021/09/09 10:33:42;;;;;;;;;;;;;;;;;;;;;
2021/09/09 10:36:39;;;;;;;12.13;10.00;;;;;;;22.87;53.69;100988.88;4946711;29;20115;-84
2021/09/09 10:39:10;;;;;;;10.63;9.60;;;;;;;22.86;53.99;100991.56;4928216;29;20059;-83
2021/09/09 10:41:42;;;;;;;10.38;9.32;;;;;;;22.71;53.89;100961.09;4928248;29;20078;-84
2021/09/09 10:44:09;;;;;;;11.15;10.02;;;;;;;22.59;53.83;100933.19;4929133;29;20020;-82
2021/09/09 10:46:38;;;;;;;9.65;8.65;;;;;;;22.64;53.75;100944.50;4912308;29;20031;-85
2021/09/09 10:49:25;;;;;;;10.15;9.15;;;;;;;22.87;54.02;100988.88;4928617;29;20035;-81
2021/09/09 10:52:11;;;;;;;11.00;9.90;;;;;;;22.61;53.93;100943.69;4917840;29;20046;-81
2021/09/09 10:55:03;;;;;;;11.95;10.73;;;;;;;22.88;53.98;100989.75;4927582;29;20035;-89
2021/09/09 10:57:28;;;;;;;12.05;10.32;;;;;;;22.78;54.18;100971.50;4926708;29;20542;-82
2021/09/09 10:59:54;;;;;;;12.32;10.25;;;;;;;22.89;54.03;100997.63;4930116;29;20066;-84
2021/09/09 11:02:21;;;;;;;10.82;9.75;;;;;;;22.83;54.01;100981.97;4915669;29;20391;-85
2021/09/09 11:04:51;;;;;;;12.15;10.85;;;;;;;22.84;54.11;100977.56;4915910;29;20071;-84
2021/09/09 11:07:23;;;;;;;11.73;10.57;;;;;;;22.90;54.24;100991.47;4930845;29;20028;-82
2021/09/09 11:10:07;;;;;;;13.53;10.83;;;;;;;22.90;54.09;100991.47;4930659;29;20102;-87
2021/09/09 11:12:39;;;;;;;12.20;10.30;;;;;;;22.63;54.01;100945.41;4946300;29;20035;-86